Time;durP1;ratioP1;P1;durP2;ratioP2;P2;SDS_P1;SDS_P2;PMS_P1;PMS_P2;Temp;Humidity;BMP_temperature;BMP_pressure;BME280_temperature;BME280_humidity;BME280_pressure;Samples;Min_cycle;Max_cycle;Signal;HPM_P1;HPM_P2
2023/01/15 00:00:00;;;;;;;0.40;0.40;;;10.20;99.90;;;;;;5088729;28;20020;-43
2023/01/15 00:02:25;;;;;;;0.57;0.57;;;10.20;99.90;;;;;;5088768;28;20087;-43
2023/01/15 00:04:51;;;;;;;0.75;0.60;;;10.30;99.90;;;;;;5088092;28;20036;-41
2023/01/15 00:07:16;;;;;;;0.93;0.65;;;10.20;99.90;;;;;;5088587;28;20028;-42
2023/01/15 00:09:42;;;;;;;2.25;0.70;;;10.20;99.90;;;;;;5088559;28;20097;-44
2023/01/15 00:12:07;;;;;;;0.60;0.60;;;10.10;99.90;;;;;;5084922;28;20024;-41
2023/01/15 00:14:33;;;;;;;1.95;1.63;;;10.10;99.90;;;;;;5086894;28;20024;-42
2023/01/15 00:16:58;;;;;;;3.05;2.08;;;10.10;99.90;;;;;;5086713;28;20052;-41
2023/01/15 00:19:24;;;;;;;2.80;0.98;;;10.00;99.90;;;;;;5088304;28;20020;-42
2023/01/15 00:21:51;;;;;;;1.08;0.95;;;10.00;99.90;;;;;;5088460;28;20082;-44
2023/01/15 00:29:45;;;;;;;0.80;0.80;;;10.20;99.90;;;;;;5088335;28;20031;-41
2023/01/15 00:32:10;;;;;;;1.08;0.82;;;10.30;99.90;;;;;;5088039;28;20032;-42
2023/01/15 00:34:37;;;;;;;0.80;0.80;;;10.20;99.90;;;;;;5088055;28;20085;-42
2023/01/15 00:37:02;;;;;;;1.95;0.70;;;10.20;99.90;;;;;;5088330;28;20024;-42
2023/01/15 00:39:28;;;;;;;0.50;0.50;;;10.30;99.90;;;;;;5086771;28;20028;-42
2023/01/15 00:41:55;;;;;;;0.50;0.50;;;10.20;99.90;;;;;;5087846;28;20103;-43
2023/01/15 00:44:21;;;;;;;0.60;0.60;;;10.10;99.90;;;;;;5088449;28;20025;-41
2023/01/15 00:46:47;;;;;;;1.20;0.75;;;10.10;99.90;;;;;;5087646;28;20155;-41
2023/01/15 00:49:13;;;;;;;3.30;0.77;;;10.10;99.90;;;;;;5087998;28;20028;-42
2023/01/15 00:51:39;;;;;;;1.23;0.68;;;10.10;99.90;;;;;;5088305;28;20032;-42
2023/01/15 00:54:04;;;;;;;0.68;0.68;;;10.00;99.90;;;;;;5088225;28;20024;-43
2023/01/15 00:56:30;;;;;;;2.45;0.80;;;10.10;99.90;;;;;;5087538;28;20328;-43
2023/01/15 00:58:56;;;;;;;1.98;0.82;;;10.10;99.90;;;;;;5088117;28;20077;-41
2023/01/15 01:01:22;;;;;;;2.92;0.70;;;10.10;99.90;;;;;;5088953;28;20021;-40
2023/01/15 01:03:51;;;;;;;2.38;0.68;;;10.00;99.90;;;;;;5090166;28;20025;-41
2023/01/15 01:06:17;;;;;;;1.65;0.90;;;9.90;99.90;;;;;;5091459;28;20020;-41
2023/01/15 01:08:44;;;;;;;1.17;0.90;;;9.80;99.90;;;;;;5092055;28;20027;-45
2023/01/15 01:11:13;;;;;;;1.30;0.98;;;9.70;99.90;;;;;;5091979;28;20024;-43
2023/01/15 01:13:39;;;;;;;5.20;0.70;;;9.60;99.90;;;;;;5091523;28;20027;-42
2023/01/15 01:16:32;;;;;;;1.15;0.88;;;9.40;99.90;;;;;;5091241;28;20028;-42
2023/01/15 01:18:58;;;;;;;1.20;0.80;;;9.20;99.90;;;;;;5091466;28;20024;-43
2023/01/15 01:21:25;;;;;;;3.15;0.75;;;9.00;99.90;;;;;;5091355;28;20081;-42
2023/01/15 01:23:51;;;;;;;1.75;0.88;;;8.70;99.90;;;;;;5091204;28;20394;-42
2023/01/15 01:26:16;;;;;;;1.77;0.80;;;8.60;99.90;;;;;;5090728;28;20016;-41
2023/01/15 01:28:42;;;;;;;1.35;0.85;;;8.40;99.90;;;;;;5091304;28;20073;-42
2023/01/15 01:31:09;;;;;;;1.42;0.70;;;8.30;99.90;;;;;;5091147;28;20028;-41
2023/01/15 01:33:34;;;;;;;8.05;0.98;;;8.20;99.90;;;;;;5091145;28;20020;-43
2023/01/15 01:36:00;;;;;;;4.25;1.00;;;8.00;99.90;;;;;;5090329;28;20044;-42
2023/01/15 01:38:26;;;;;;;2.75;0.88;;;7.90;99.90;;;;;;5090938;28;20028;-41
2023/01/15 01:40:52;;;;;;;2.78;0.80;;;7.70;99.90;;;;;;5091317;28;20024;-42
2023/01/15 01:43:23;;;;;;;5.50;1.00;;;7.60;99.90;;;;;;5089433;28;20052;-43
2023/01/15 01:45:49;;;;;;;3.40;0.80;;;7.60;99.90;;;;;;5090789;28;20157;-42
2023/01/15 01:48:17;;;;;;;3.50;0.90;;;7.50;99.90;;;;;;5090821;28;20024;-41
2023/01/15 01:50:44;;;;;;;1.75;0.70;;;7.40;99.90;;;;;;5090895;28;20441;-42
2023/01/15 01:53:18;;;;;;;3.45;1.05;;;7.30;99.90;;;;;;5091247;28;20028;-41
2023/01/15 01:55:45;;;;;;;1.77;0.95;;;7.30;99.90;;;;;;5090261;28;20441;-42
2023/01/15 01:58:12;;;;;;;2.97;1.00;;;7.20;99.90;;;;;;5090717;28;20224;-42
2023/01/15 02:00:43;;;;;;;3.30;1.08;;;7.20;99.90;;;;;;5090876;28;20021;-41
2023/01/15 02:03:08;;;;;;;;;;;7.20;99.90;;;;;;5091005;28;20016;-41
2023/01/15 02:05:42;;;;;;;1.10;0.70;;;7.10;99.90;;;;;;5089980;28;19917;-41
2023/01/15 02:08:08;;;;;;;1.27;0.68;;;7.00;99.90;;;;;;5090384;28;20020;-42
2023/01/15 02:10:34;;;;;;;1.05;0.75;;;6.90;99.90;;;;;;5090413;28;20082;-42
2023/01/15 02:13:03;;;;;;;2.45;0.52;;;6.70;99.90;;;;;;5090471;28;20031;-40
2023/01/15 02:15:39;;;;;;;1.92;0.82;;;6.60;99.90;;;;;;5088562;28;20069;-41
2023/01/15 02:18:22;;;;;;;1.48;0.80;;;6.60;99.90;;;;;;5090379;28;20020;-40
2023/01/15 02:20:57;;;;;;;1.13;0.70;;;6.50;99.90;;;;;;5089058;28;20482;-41
2023/01/15 02:23:52;;;;;;;4.07;0.90;;;6.40;99.90;;;;;;5089938;28;20055;-41
2023/01/15 02:26:45;;;;;;;1.50;0.60;;;6.30;99.90;;;;;;5087330;28;20051;-40
2023/01/15 02:29:16;;;;;;;2.63;0.68;;;6.30;99.90;;;;;;5089608;28;20023;-41
2023/01/15 02:31:48;;;;;;;4.05;1.35;;;6.20;99.90;;;;;;5090066;28;20543;-41
2023/01/15 02:34:24;;;;;;;3.85;0.63;;;6.30;99.90;;;;;;5090176;28;20081;-42
2023/01/15 02:37:05;;;;;;;3.40;1.00;;;6.20;99.90;;;;;;5089913;28;20437;-42
2023/01/15 02:39:33;;;;;;;2.95;0.75;;;6.10;99.90;;;;;;5090222;28;20013;-42
2023/01/15 02:42:02;;;;;;;2.65;0.68;;;6.10;99.90;;;;;;5088928;28;20028;-42
2023/01/15 02:44:31;;;;;;;4.38;0.70;;;6.10;99.90;;;;;;5089888;28;20043;-43
2023/01/15 02:46:58;;;;;;;2.75;0.93;;;6.00;99.90;;;;;;5089934;28;20504;-41
2023/01/15 02:49:24;;;;;;;1.90;0.98;;;6.00;99.90;;;;;;5089836;28;20016;-42
2023/01/15 02:52:06;;;;;;;3.53;0.90;;;6.00;99.90;;;;;;5089697;28;20023;-41
2023/01/15 02:54:41;;;;;;;2.03;0.90;;;6.00;99.90;;;;;;5089383;28;20482;-42
2023/01/15 02:57:10;;;;;;;1.15;0.50;;;5.90;99.90;;;;;;5089398;28;20024;-42
2023/01/15 02:59:43;;;;;;;2.35;0.70;;;5.90;99.90;;;;;;5088258;28;20020;-40
2023/01/15 03:02:22;;;;;;;2.17;0.80;;;5.90;99.90;;;;;;5089732;28;20016;-40
2023/01/15 03:05:00;;;;;;;2.78;0.73;;;5.90;99.90;;;;;;5089131;28;20036;-40
2023/01/15 03:07:38;;;;;;;4.30;0.82;;;5.90;99.90;;;;;;5089538;28;20062;-40
2023/01/15 03:10:05;;;;;;;2.17;0.73;;;5.80;99.90;;;;;;5089572;28;20079;-40
2023/01/15 03:13:02;;;;;;;2.30;0.75;;;5.80;99.90;;;;;;5089854;28;20082;-40
2023/01/15 03:18:49;;;;;;;2.58;0.57;;;5.70;99.90;;;;;;5088707;28;20060;-42
2023/01/15 03:21:20;;;;;;;5.47;0.70;;;5.70;99.90;;;;;;5088949;28;20074;-41
2023/01/15 03:23:50;;;;;;;2.70;0.73;;;5.60;99.90;;;;;;5088887;28;20100;-41
2023/01/15 03:26:15;;;;;;;2.20;0.77;;;5.60;99.90;;;;;;5088280;28;20021;-40
2023/01/15 03:28:43;;;;;;;2.25;0.75;;;5.60;99.90;;;;;;5087842;28;20028;-40
2023/01/15 03:31:09;;;;;;;2.80;0.68;;;5.50;99.90;;;;;;5089308;28;20073;-40
2023/01/15 03:33:34;;;;;;;1.20;0.60;;;5.50;99.90;;;;;;5089027;28;20024;-40
2023/01/15 03:36:00;;;;;;;0.98;0.55;;;5.50;99.90;;;;;;5087149;28;20553;-40
2023/01/15 03:38:34;;;;;;;1.10;0.50;;;5.50;99.90;;;;;;5087342;28;20035;-53
2023/01/15 03:41:33;;;;;;;0.45;0.45;;;5.50;99.90;;;;;;5079115;28;20414;-40
2023/01/15 03:44:23;;;;;;;1.25;0.52;;;5.50;99.90;;;;;;5088655;28;20054;-41
2023/01/15 03:47:18;;;;;;;2.97;0.60;;;5.50;99.90;;;;;;5088424;28;20100;-41
2023/01/15 03:49:55;;;;;;;5.25;1.42;;;5.60;99.90;;;;;;5088878;28;20031;-42
2023/01/15 03:52:43;;;;;;;2.92;0.60;;;5.50;99.90;;;;;;5088844;28;20012;-41
2023/01/15 03:55:41;;;;;;;1.58;0.68;;;5.50;99.90;;;;;;5088526;28;20051;-40
2023/01/15 03:58:20;;;;;;;1.65;0.75;;;5.50;99.90;;;;;;5088608;28;20016;-41
2023/01/15 04:00:58;;;;;;;0.55;0.50;;;5.50;99.90;;;;;;5088736;28;20039;-41
2023/01/15 04:03:26;;;;;;;2.10;0.60;;;5.50;99.90;;;;;;5088570;28;20015;-41
2023/01/15 04:05:54;;;;;;;0.60;0.60;;;5.50;99.90;;;;;;5088121;28;20118;-40
2023/01/15 04:08:21;;;;;;;1.83;0.82;;;5.60;99.90;;;;;;5088585;28;20020;-40
2023/01/15 04:10:55;;;;;;;1.95;0.30;;;5.60;99.90;;;;;;5088950;28;20039;-46
2023/01/15 04:13:21;;;;;;;2.80;0.73;;;5.60;99.90;;;;;;5088760;28;20024;-40
2023/01/15 04:15:46;;;;;;;0.43;0.43;;;5.60;99.90;;;;;;5087776;28;20432;-40
2023/01/15 04:18:12;;;;;;;2.15;0.40;;;5.60;99.90;;;;;;5088300;28;20020;-39
2023/01/15 04:20:37;;;;;;;1.50;0.40;;;5.60;99.90;;;;;;5088279;28;20045;-40
2023/01/15 04:23:03;;;;;;;1.27;0.52;;;5.60;99.90;;;;;;5088505;28;20055;-40
2023/01/15 04:25:28;;;;;;;0.60;0.60;;;5.60;99.90;;;;;;5087869;28;20085;-40
2023/01/15 04:27:54;;;;;;;3.08;0.70;;;5.60;99.90;;;;;;5088478;28;20095;-41
2023/01/15 04:30:20;;;;;;;1.92;0.55;;;5.50;99.90;;;;;;5088424;28;20020;-41
2023/01/15 04:32:49;;;;;;;2.70;0.68;;;5.60;99.90;;;;;;5088240;28;20032;-41
2023/01/15 04:35:16;;;;;;;2.85;0.50;;;5.60;99.90;;;;;;5087635;28;20101;-40
2023/01/15 04:37:42;;;;;;;1.98;0.68;;;5.60;99.90;;;;;;5091109;28;20418;-41
2023/01/15 04:40:08;;;;;;;1.25;0.57;;;5.60;99.90;;;;;;5092703;28;20024;-40
2023/01/15 04:45:18;;;;;;;0.77;0.60;;;5.60;99.90;;;;;;5091123;28;20038;-40
2023/01/15 04:47:43;;;;;;;0.70;0.60;;;5.70;99.90;;;;;;5091782;28;20249;-40
2023/01/15 04:50:10;;;;;;;1.27;0.70;;;5.60;99.90;;;;;;5092010;28;20031;-40
2023/01/15 04:52:36;;;;;;;2.17;0.60;;;5.60;99.90;;;;;;5091279;28;20036;-41
2023/01/15 04:55:03;;;;;;;1.92;0.70;;;5.60;99.90;;;;;;5091447;28;20024;-41
2023/01/15 04:57:28;;;;;;;1.20;0.73;;;5.70;99.90;;;;;;5092243;28;20024;-41
2023/01/15 04:59:54;;;;;;;1.30;0.63;;;5.70;99.90;;;;;;5092091;28;20024;-41
2023/01/15 05:02:19;;;;;;;2.08;0.85;;;5.60;99.90;;;;;;5091974;28;20052;-41
2023/01/15 05:04:45;;;;;;;3.30;0.70;;;5.70;99.90;;;;;;5089746;28;20043;-41
2023/01/15 05:07:10;;;;;;;1.00;0.88;;;5.70;99.90;;;;;;5091719;28;20024;-41
2023/01/15 05:09:36;;;;;;;0.93;0.57;;;5.70;99.90;;;;;;5091741;28;20220;-41
2023/01/15 05:12:02;;;;;;;1.48;0.60;;;5.70;99.90;;;;;;5091542;28;20055;-42
2023/01/15 05:14:27;;;;;;;3.60;0.88;;;5.70;99.90;;;;;;5091514;28;20394;-41
2023/01/15 05:16:53;;;;;;;2.90;0.77;;;5.70;99.90;;;;;;5091014;28;20055;-41
2023/01/15 05:19:18;;;;;;;1.17;0.75;;;5.70;99.90;;;;;;5091636;28;20103;-41
2023/01/15 05:21:45;;;;;;;2.15;1.02;;;5.70;99.90;;;;;;5091136;28;20050;-41
2023/01/15 05:24:15;;;;;;;3.80;0.98;;;5.70;99.90;;;;;;5091293;28;20390;-40
2023/01/15 05:26:41;;;;;;;1.45;0.65;;;5.80;99.90;;;;;;5090707;28;20070;-41
2023/01/15 05:29:08;;;;;;;0.60;0.60;;;5.80;99.90;;;;;;5097345;28;20359;-40
2023/01/15 05:31:34;;;;;;;2.33;0.80;;;5.80;99.90;;;;;;5093395;28;20024;-41
2023/01/15 05:34:00;;;;;;;5.40;1.13;;;5.80;99.90;;;;;;5090870;28;20093;-40
2023/01/15 05:36:29;;;;;;;2.40;0.73;;;5.80;99.90;;;;;;5089138;28;20024;-41
2023/01/15 05:38:58;;;;;;;2.90;0.80;;;5.90;99.90;;;;;;5091013;28;20016;-41
2023/01/15 05:44:10;;;;;;;2.85;0.98;;;5.80;99.90;;;;;;5089572;28;20022;-41
2023/01/15 05:46:37;;;;;;;3.10;1.10;;;5.90;99.90;;;;;;5089782;28;20135;-41
2023/01/15 05:49:06;;;;;;;3.15;0.80;;;5.90;99.90;;;;;;5090302;28;20075;-41
2023/01/15 05:51:33;;;;;;;1.63;0.68;;;5.80;99.90;;;;;;5090355;28;20482;-41
2023/01/15 05:53:59;;;;;;;3.97;0.93;;;5.90;99.90;;;;;;5099928;28;20020;-41
2023/01/15 05:56:25;;;;;;;5.43;0.82;;;5.90;99.90;;;;;;5099828;28;20110;-41
2023/01/15 05:58:50;;;;;;;1.63;0.73;;;5.90;99.90;;;;;;5091615;28;20470;-40
2023/01/15 06:01:16;;;;;;;1.52;1.35;;;5.90;99.90;;;;;;5089952;28;20068;-40
2023/01/15 06:03:42;;;;;;;1.17;0.70;;;5.90;99.90;;;;;;5090130;28;20485;-41
2023/01/15 06:06:13;;;;;;;3.80;1.00;;;5.90;99.90;;;;;;5089631;28;20034;-42
2023/01/15 06:08:38;;;;;;;1.60;0.82;;;5.90;99.90;;;;;;5090726;28;20031;-41
2023/01/15 06:11:05;;;;;;;1.90;1.30;;;5.90;99.90;;;;;;5089834;28;20028;-42
2023/01/15 06:13:31;;;;;;;2.22;0.90;;;6.00;99.90;;;;;;5090308;28;20031;-41
2023/01/15 06:15:59;;;;;;;4.28;1.02;;;5.90;99.90;;;;;;5089596;28;20020;-41
2023/01/15 06:18:24;;;;;;;4.50;1.10;;;6.00;99.90;;;;;;5090433;28;20020;-40
2023/01/15 06:20:50;;;;;;;1.75;0.90;;;6.00;99.90;;;;;;5090245;28;20478;-41
2023/01/15 06:23:16;;;;;;;3.67;1.13;;;6.00;99.90;;;;;;5090398;28;20024;-41
2023/01/15 06:25:42;;;;;;;6.35;1.10;;;5.90;99.90;;;;;;5089877;28;20054;-41
2023/01/15 06:28:09;;;;;;;2.70;0.90;;;5.90;99.90;;;;;;5089026;28;20048;-43
2023/01/15 06:30:36;;;;;;;5.88;1.33;;;5.90;99.90;;;;;;5090074;28;20063;-41
2023/01/15 06:33:01;;;;;;;5.57;1.17;;;5.90;99.90;;;;;;5089976;28;20106;-41
2023/01/15 06:35:27;;;;;;;1.00;0.90;;;5.90;99.90;;;;;;5088355;28;20158;-43
2023/01/15 06:37:52;;;;;;;4.00;0.98;;;5.90;99.90;;;;;;5090219;28;20225;-43
2023/01/15 06:40:18;;;;;;;4.13;0.95;;;5.90;99.90;;;;;;5090313;28;20020;-41
2023/01/15 06:48:20;;;;;;;4.55;1.05;;;5.90;99.90;;;;;;5090321;28;20058;-41
2023/01/15 06:50:46;;;;;;;4.00;1.10;;;5.90;99.90;;;;;;5089971;28;20064;-41
2023/01/15 06:53:12;;;;;;;2.90;1.23;;;5.90;99.90;;;;;;5089497;28;20028;-41
2023/01/15 06:55:38;;;;;;;3.20;1.08;;;5.90;99.90;;;;;;5089348;28;20065;-42
2023/01/15 06:58:03;;;;;;;2.25;0.98;;;5.90;99.90;;;;;;5071179;28;20024;-39
2023/01/15 07:00:29;;;;;;;6.13;1.27;;;5.90;99.90;;;;;;5088759;28;20024;-40
2023/01/15 07:02:54;;;;;;;3.47;1.00;;;5.80;99.90;;;;;;5089469;28;20016;-40
2023/01/15 07:05:20;;;;;;;3.35;1.02;;;5.80;99.90;;;;;;5088327;28;20024;-41
2023/01/15 07:07:45;;;;;;;6.95;1.33;;;5.90;99.90;;;;;;5088746;28;20068;-41
2023/01/15 07:10:11;;;;;;;4.70;1.33;;;5.90;99.90;;;;;;5089547;28;20020;-41
2023/01/15 07:12:36;;;;;;;7.15;1.38;;;5.90;99.90;;;;;;5088893;28;20353;-41
2023/01/15 07:15:02;;;;;;;2.58;1.30;;;5.90;99.90;;;;;;5088472;28;20153;-40
2023/01/15 07:17:27;;;;;;;7.20;1.30;;;5.80;99.90;;;;;;5087619;28;20188;-41
2023/01/15 07:19:53;;;;;;;6.93;1.30;;;5.80;99.90;;;;;;5088737;28;20091;-42
2023/01/15 07:22:18;;;;;;;3.55;1.20;;;5.80;99.90;;;;;;5088550;28;20024;-40
2023/01/15 07:24:44;;;;;;;4.07;1.38;;;5.80;99.90;;;;;;5088452;28;20027;-39
2023/01/15 07:27:09;;;;;;;6.93;1.25;;;5.80;99.90;;;;;;5089039;28;20057;-41
2023/01/15 07:29:35;;;;;;;4.18;1.30;;;5.80;99.90;;;;;;5088849;28;20032;-40
2023/01/15 07:32:01;;;;;;;6.45;1.15;;;5.80;99.90;;;;;;5086881;28;20036;-39
2023/01/15 07:34:26;;;;;;;4.75;1.27;;;5.80;99.90;;;;;;5088388;28;20028;-39
2023/01/15 07:36:52;;;;;;;8.05;2.25;;;5.90;99.90;;;;;;5088045;28;20026;-39
2023/01/15 07:39:17;;;;;;;5.70;1.38;;;5.90;99.90;;;;;;5088835;28;20020;-40
2023/01/15 07:50:04;;;;;;;5.60;1.90;;;6.00;99.90;;;;;;5087083;28;20063;-40
2023/01/15 07:52:29;;;;;;;4.32;1.23;;;6.00;99.90;;;;;;5085548;28;20491;-39
2023/01/15 07:54:55;;;;;;;6.50;1.45;;;6.00;99.90;;;;;;5094457;28;20490;-40
2023/01/15 07:57:21;;;;;;;3.33;1.20;;;6.10;99.90;;;;;;5108111;28;20011;-41
2023/01/15 07:59:48;;;;;;;4.32;1.23;;;6.00;99.90;;;;;;5105846;28;20157;-39
2023/01/15 08:02:14;;;;;;;5.55;1.30;;;6.00;99.90;;;;;;5087145;28;20031;-40
2023/01/15 08:04:39;;;;;;;6.43;1.48;;;6.00;99.90;;;;;;5087713;28;20040;-40
2023/01/15 08:07:05;;;;;;;3.60;1.23;;;6.10;99.90;;;;;;5083604;28;20055;-41
2023/01/15 08:09:31;;;;;;;5.40;2.13;;;6.10;99.90;;;;;;5088337;28;20403;-40
2023/01/15 08:17:33;;;;;;;4.20;1.50;;;6.20;99.90;;;;;;5089683;28;20054;-42
2023/01/15 08:19:59;;;;;;;8.88;1.98;;;6.20;99.90;;;;;;5092207;28;20642;-41
2023/01/15 08:22:25;;;;;;;8.20;2.13;;;6.10;99.90;;;;;;5092580;28;20039;-40
2023/01/15 08:24:50;;;;;;;5.28;1.85;;;6.20;99.90;;;;;;5084741;28;20016;-40
2023/01/15 08:27:16;;;;;;;7.40;1.63;;;6.20;99.90;;;;;;5092133;28;20039;-41
2023/01/15 08:29:41;;;;;;;6.05;1.52;;;6.20;99.90;;;;;;5091916;28;20020;-40
2023/01/15 08:32:07;;;;;;;7.88;1.50;;;6.20;99.90;;;;;;5092270;28;20024;-40
2023/01/15 08:34:33;;;;;;;8.50;2.08;;;6.20;99.90;;;;;;5091728;28;20031;-41
2023/01/15 08:36:58;;;;;;;8.68;1.98;;;6.20;99.90;;;;;;5091548;28;20024;-41
2023/01/15 08:39:26;;;;;;;7.13;2.13;;;6.20;99.90;;;;;;5092272;28;20016;-40
2023/01/15 08:41:51;;;;;;;3.97;1.25;;;6.30;99.90;;;;;;5091749;28;20122;-41
2023/01/15 08:44:17;;;;;;;5.32;2.03;;;6.20;99.90;;;;;;5092104;28;20442;-40
2023/01/15 08:46:43;;;;;;;7.93;1.55;;;6.30;99.90;;;;;;5090976;28;20063;-40
2023/01/15 08:49:11;;;;;;;5.88;1.45;;;6.40;99.90;;;;;;5092166;28;20062;-40
2023/01/15 08:51:37;;;;;;;7.78;1.67;;;6.40;99.90;;;;;;5091483;28;20031;-40
2023/01/15 08:54:02;;;;;;;6.25;1.50;;;6.40;99.90;;;;;;5091777;28;20020;-40
2023/01/15 08:56:28;;;;;;;4.32;1.77;;;6.40;99.90;;;;;;5091342;28;20448;-40
2023/01/15 08:58:53;;;;;;;12.20;1.60;;;6.40;99.90;;;;;;5091475;28;20027;-40
2023/01/15 09:01:19;;;;;;;5.78;1.35;;;6.50;99.90;;;;;;5091914;28;20012;-40
2023/01/15 09:03:44;;;;;;;6.50;1.92;;;6.50;99.90;;;;;;5092006;28;20439;-40
2023/01/15 09:06:12;;;;;;;4.57;1.58;;;6.60;99.90;;;;;;5091603;28;20060;-40
2023/01/15 09:08:38;;;;;;;4.35;1.42;;;6.60;99.90;;;;;;5091600;28;20027;-40
2023/01/15 09:11:06;;;;;;;6.07;1.08;;;6.60;99.90;;;;;;5091585;28;20028;-40
2023/01/15 09:13:31;;;;;;;4.00;1.15;;;6.60;99.90;;;;;;5091736;28;20103;-39
2023/01/15 09:16:02;;;;;;;6.30;1.25;;;6.60;99.90;;;;;;5091217;28;20566;-40
2023/01/15 09:18:27;;;;;;;2.50;0.98;;;6.70;99.90;;;;;;5091547;28;20048;-40
2023/01/15 09:20:53;;;;;;;5.72;1.55;;;6.60;99.90;;;;;;5091337;28;20058;-40
2023/01/15 09:23:18;;;;;;;8.70;1.98;;;6.70;99.90;;;;;;5090629;28;20020;-40
2023/01/15 09:25:55;;;;;;;4.10;1.40;;;6.70;99.90;;;;;;5089400;28;20072;-40
2023/01/15 09:28:21;;;;;;;3.83;1.42;;;6.60;99.90;;;;;;5091504;28;20487;-41
2023/01/15 09:30:46;;;;;;;6.57;1.85;;;6.60;99.90;;;;;;5091032;28;20035;-42
2023/01/15 09:33:12;;;;;;;5.82;1.40;;;6.70;99.90;;;;;;5091438;28;20031;-41
2023/01/15 09:35:38;;;;;;;3.45;1.58;;;6.60;99.90;;;;;;5090952;28;20072;-41
2023/01/15 09:38:03;;;;;;;5.50;1.58;;;6.60;99.90;;;;;;5090896;28;20130;-41
2023/01/15 09:40:51;;;;;;;7.68;1.85;;;6.70;99.90;;;;;;5091020;28;20378;-41
2023/01/15 09:43:29;;;;;;;4.15;1.63;;;6.80;99.90;;;;;;5091069;28;20099;-41
2023/01/15 09:46:13;;;;;;;3.35;1.40;;;6.90;99.90;;;;;;5090487;28;20024;-41
2023/01/15 09:49:03;;;;;;;5.85;1.20;;;6.90;99.90;;;;;;5090410;28;20028;-41
2023/01/15 09:51:42;;;;;;;4.18;1.80;;;6.90;99.90;;;;;;5089412;28;20389;-41
2023/01/15 09:54:30;;;;;;;6.90;1.35;;;6.90;99.90;;;;;;5090678;28;20040;-42
2023/01/15 09:56:56;;;;;;;6.40;1.50;;;7.00;99.90;;;;;;5090286;28;20020;-41
2023/01/15 09:59:46;;;;;;;3.75;1.40;;;7.10;99.90;;;;;;5090659;28;20047;-42
2023/01/15 10:02:27;;;;;;;5.22;1.58;;;7.00;99.90;;;;;;5089645;28;20115;-41
2023/01/15 10:05:15;;;;;;;2.70;1.20;;;7.10;99.90;;;;;;5090130;28;20043;-41
2023/01/15 10:08:20;;;;;;;5.03;1.42;;;7.10;99.90;;;;;;5090605;28;20414;-41
2023/01/15 10:11:03;;;;;;;6.63;1.63;;;7.10;99.90;;;;;;5090117;28;20111;-40
2023/01/15 10:13:44;;;;;;;6.35;1.45;;;7.10;99.90;;;;;;5088876;28;20020;-40
2023/01/15 10:16:15;;;;;;;6.78;1.90;;;7.10;99.90;;;;;;5090078;28;20020;-41
2023/01/15 10:18:42;;;;;;;6.80;1.40;;;7.20;99.90;;;;;;5090454;28;20105;-40
2023/01/15 10:21:29;;;;;;;6.32;1.52;;;7.40;99.90;;;;;;5090320;28;20012;-41
2023/01/15 10:24:01;;;;;;;5.05;1.08;;;7.40;99.90;;;;;;5090002;28;20399;-41
2023/01/15 10:26:49;;;;;;;4.78;1.80;;;7.40;99.90;;;;;;5089635;28;20456;-40
2023/01/15 10:29:43;;;;;;;9.20;1.50;;;7.30;99.90;;;;;;5090128;28;20023;-40
2023/01/15 10:32:36;;;;;;;4.22;1.10;;;7.30;99.90;;;;;;5090369;28;20394;-41
2023/01/15 10:35:22;;;;;;;6.10;1.33;;;7.50;99.90;;;;;;5088564;28;20107;-41
2023/01/15 10:38:07;;;;;;;5.47;1.38;;;7.50;99.90;;;;;;5090160;28;20424;-41
2023/01/15 10:40:44;;;;;;;4.68;1.30;;;7.60;99.90;;;;;;5089842;28;20024;-41
2023/01/15 10:43:25;;;;;;;1.83;0.90;;;7.80;99.90;;;;;;5090209;28;20012;-41
2023/01/15 10:46:07;;;;;;;6.65;2.20;;;7.70;99.90;;;;;;5089400;28;20050;-42
2023/01/15 10:48:58;;;;;;;7.10;1.42;;;8.00;99.90;;;;;;5089748;28;20020;-41
2023/01/15 10:51:33;;;;;;;3.67;1.10;;;8.10;99.90;;;;;;5089906;28;20486;-41
2023/01/15 10:54:25;;;;;;;5.28;1.48;;;8.20;99.90;;;;;;5089764;28;20704;-41
2023/01/15 10:57:11;;;;;;;5.45;1.77;;;7.90;99.90;;;;;;5087839;28;20067;-41
2023/01/15 10:59:39;;;;;;;4.35;1.10;;;7.60;99.90;;;;;;5089373;28;20023;-41
2023/01/15 11:02:26;;;;;;;1.98;0.70;;;7.50;99.90;;;;;;5089854;28;20016;-41
2023/01/15 11:04:53;;;;;;;2.10;1.10;;;7.40;99.90;;;;;;5089202;28;20459;-41
2023/01/15 11:07:25;;;;;;;4.47;0.90;;;7.40;99.90;;;;;;5089541;28;20212;-40
2023/01/15 11:09:51;;;;;;;3.17;1.35;;;7.20;99.90;;;;;;5089539;28;20561;-41
2023/01/15 11:20:41;;;;;;;4.43;1.15;;;7.20;99.90;;;;;;5089167;28;20067;-42
2023/01/15 11:23:09;;;;;;;2.03;0.88;;;7.20;99.90;;;;;;5087863;28;20024;-42
2023/01/15 11:25:35;;;;;;;2.05;0.90;;;7.20;99.90;;;;;;5088620;28;20131;-41
2023/01/15 11:28:04;;;;;;;4.75;1.10;;;7.30;99.90;;;;;;5089703;28;20050;-41
2023/01/15 11:30:33;;;;;;;5.93;1.48;;;7.30;99.90;;;;;;5088819;28;20099;-41
2023/01/15 11:33:03;;;;;;;2.92;1.15;;;7.40;99.90;;;;;;5088682;28;20050;-41
2023/01/15 11:35:30;;;;;;;8.02;1.58;;;7.40;99.90;;;;;;5087831;28;20354;-41
2023/01/15 11:38:11;;;;;;;4.75;1.33;;;7.50;99.90;;;;;;5088423;28;20024;-41
2023/01/15 11:40:37;;;;;;;4.50;1.20;;;7.60;99.90;;;;;;5089091;28;20103;-41
2023/01/15 11:51:34;;;;;;;2.65;1.15;;;8.00;99.90;;;;;;5088915;28;20379;-41
2023/01/15 11:54:06;;;;;;;4.22;1.55;;;8.20;99.90;;;;;;5087076;28;20028;-42
2023/01/15 11:56:34;;;;;;;1.65;1.05;;;8.30;99.90;;;;;;5086299;28;20028;-42
2023/01/15 11:59:10;;;;;;;6.43;1.20;;;9.20;99.90;;;;;;5087083;28;20583;-42
2023/01/15 12:01:44;;;;;;;3.83;1.10;;;10.20;99.90;;;;;;5087381;28;20028;-42
2023/01/15 12:04:46;;;;;;;1.70;1.10;;;10.30;99.90;;;;;;5087257;28;20295;-44
2023/01/15 12:07:14;;;;;;;1.52;1.00;;;10.70;99.50;;;;;;5087673;28;20051;-41
2023/01/15 12:10:01;;;;;;;3.70;1.00;;;10.70;98.90;;;;;;5088607;28;20078;-42
2023/01/15 12:12:49;;;;;;;5.25;1.20;;;10.60;99.00;;;;;;5085753;28;20023;-42
2023/01/15 12:15:39;;;;;;;3.30;1.48;;;9.70;99.50;;;;;;5088297;28;20426;-42
2023/01/15 12:18:12;;;;;;;4.97;1.20;;;9.40;99.90;;;;;;5088839;28;20028;-42
2023/01/15 12:20:49;;;;;;;6.82;1.38;;;9.10;99.90;;;;;;5088508;28;20091;-42
2023/01/15 12:23:45;;;;;;;6.35;1.30;;;9.00;99.90;;;;;;5088789;28;20027;-41
2023/01/15 12:26:48;;;;;;;5.50;1.50;;;8.80;99.90;;;;;;5087972;28;20474;-41
2023/01/15 12:29:43;;;;;;;4.47;1.40;;;8.60;99.90;;;;;;5068198;28;20532;-41
2023/01/15 12:32:17;;;;;;;6.20;1.10;;;8.30;99.90;;;;;;5087386;28;20040;-43
2023/01/15 12:34:51;;;;;;;2.47;1.35;;;8.20;99.90;;;;;;5084186;28;20119;-41
2023/01/15 12:37:23;;;;;;;3.55;1.30;;;8.20;99.90;;;;;;5083985;28;20058;-41
2023/01/15 12:40:12;;;;;;;5.53;1.20;;;8.10;99.90;;;;;;5086410;28;20012;-42
2023/01/15 12:45:27;;;;;;;3.53;1.10;;;8.20;99.90;;;;;;5084600;28;20036;-41
2023/01/15 12:48:17;;;;;;;3.10;1.48;;;8.30;99.90;;;;;;5086399;28;20032;-42
2023/01/15 12:50:51;;;;;;;6.20;1.33;;;8.20;99.90;;;;;;5087376;28;20032;-41
2023/01/15 12:53:38;;;;;;;7.18;1.67;;;8.10;99.90;;;;;;5085839;28;20049;-40
2023/01/15 12:56:31;;;;;;;5.70;1.50;;;8.00;99.90;;;;;;5085064;28;20103;-40
2023/01/15 12:59:15;;;;;;;7.07;1.92;;;7.90;99.90;;;;;;5089282;28;20099;-41
2023/01/15 13:02:12;;;;;;;4.07;1.20;;;7.90;99.90;;;;;;5090476;28;20032;-41
2023/01/15 13:04:52;;;;;;;2.08;0.93;;;8.10;99.90;;;;;;5087792;28;20075;-41
2023/01/15 13:07:56;;;;;;;5.85;1.17;;;8.10;99.90;;;;;;5088735;28;20107;-41
2023/01/15 13:10:26;;;;;;;3.28;1.05;;;8.10;99.90;;;;;;5089078;28;20020;-41
2023/01/15 13:12:54;;;;;;;3.63;0.90;;;8.10;99.90;;;;;;5089398;28;20505;-42
2023/01/15 13:15:25;;;;;;;7.03;1.48;;;8.10;99.90;;;;;;5089579;28;20024;-41
2023/01/15 13:18:27;;;;;;;2.83;1.10;;;8.10;99.40;;;;;;5088511;28;20423;-41
2023/01/15 13:20:54;;;;;;;4.97;1.20;;;8.00;99.30;;;;;;5089359;28;20466;-42
2023/01/15 13:23:53;;;;;;;4.85;1.05;;;7.90;99.90;;;;;;5090757;28;20076;-43
2023/01/15 13:27:03;;;;;;;3.50;1.38;;;7.90;99.50;;;;;;5089372;28;20039;-41
2023/01/15 13:30:03;;;;;;;6.32;1.48;;;7.90;99.00;;;;;;5088986;28;20444;-42
2023/01/15 13:32:34;;;;;;;4.22;1.45;;;7.90;99.60;;;;;;5088303;28;20583;-43
2023/01/15 13:35:21;;;;;;;6.95;1.25;;;7.90;99.70;;;;;;5088984;28;20020;-41
2023/01/15 13:37:52;;;;;;;6.28;1.27;;;8.00;98.70;;;;;;5088340;28;20017;-42
2023/01/15 13:40:35;;;;;;;6.63;1.20;;;8.00;98.70;;;;;;5090638;28;20017;-41
2023/01/15 13:43:02;;;;;;;5.72;1.33;;;8.00;98.60;;;;;;5089939;28;20017;-42
2023/01/15 13:45:36;;;;;;;4.10;1.13;;;8.00;98.10;;;;;;5087299;28;20028;-43
2023/01/15 13:48:28;;;;;;;3.78;1.20;;;8.00;98.40;;;;;;5090563;28;20036;-41
2023/01/15 13:51:03;;;;;;;2.35;0.82;;;8.00;98.30;;;;;;5086600;28;20044;-41
2023/01/15 13:53:38;;;;;;;1.83;0.95;;;7.90;98.40;;;;;;5089213;28;20483;-42
2023/01/15 13:56:08;;;;;;;3.85;1.40;;;7.80;98.10;;;;;;5088193;28;20123;-42
2023/01/15 13:58:38;;;;;;;6.03;1.58;;;7.80;98.50;;;;;;5089884;28;20555;-42
2023/01/15 14:01:19;;;;;;;3.75;1.05;;;7.80;98.70;;;;;;5090144;28;20470;-41
2023/01/15 14:04:11;;;;;;;4.40;0.98;;;7.80;98.70;;;;;;5088767;28;20261;-41
2023/01/15 14:06:48;;;;;;;3.72;1.13;;;7.80;98.70;;;;;;5086953;28;20027;-42
2023/01/15 14:09:36;;;;;;;3.63;1.20;;;7.70;98.50;;;;;;5087833;28;20563;-41
2023/01/15 14:12:17;;;;;;;3.70;1.08;;;7.70;99.00;;;;;;5089401;28;20106;-41